Time;durP1;ratioP1;P1;durP2;ratioP2;P2;SDS_P1;SDS_P2;PMS_P1;PMS_P2;Temp;Humidity;BMP_temperature;BMP_pressure;BME280_temperature;BME280_humidity;BME280_pressure;Samples;Min_cycle;Max_cycle;Signal;HPM_P1;HPM_P2
2023/04/19 00:00:20;;;;;;;21.03;19.83;;;11.40;1.00;;;;;;5090788;28;20458;-84
2023/04/19 00:02:48;;;;;;;22.47;21.17;;;11.40;1.00;;;;;;5093007;28;20456;-84
2023/04/19 00:05:17;;;;;;;22.43;21.20;;;11.40;1.00;;;;;;5096842;28;20449;-85
2023/04/19 00:07:51;;;;;;;21.50;20.40;;;11.40;1.00;;;;;;5096018;28;20470;-86
2023/04/19 00:10:19;;;;;;;22.83;21.53;;;11.40;1.00;;;;;;5094010;28;20452;-85
2023/04/19 00:12:47;;;;;;;21.20;20.20;;;11.40;1.00;;;;;;5096178;28;20555;-86
2023/04/19 00:15:22;;;;;;;22.57;21.33;;;11.40;1.00;;;;;;5092541;28;20461;-85
2023/04/19 00:17:51;;;;;;;21.90;20.80;;;11.40;1.00;;;;;;5095184;28;20571;-84
2023/04/19 00:20:23;;;;;;;22.10;20.90;;;11.30;1.00;;;;;;5090038;28;20465;-85
2023/04/19 00:22:53;;;;;;;22.47;21.17;;;11.30;1.00;;;;;;5092874;28;20454;-84
2023/04/19 00:25:21;;;;;;;22.90;21.80;;;11.30;1.00;;;;;;5095855;28;20461;-84
2023/04/19 00:27:49;;;;;;;22.80;21.43;;;11.40;1.00;;;;;;5096002;28;20472;-85
2023/04/19 00:30:18;;;;;;;21.77;20.67;;;11.40;1.00;;;;;;5092615;28;20458;-85
2023/04/19 00:32:46;;;;;;;22.27;20.97;;;11.30;1.00;;;;;;5092694;28;20456;-85
2023/04/19 00:35:14;;;;;;;21.77;20.57;;;11.30;1.00;;;;;;5077563;28;20469;-85
2023/04/19 00:37:46;;;;;;;22.63;21.40;;;11.30;1.00;;;;;;5092789;28;20495;-86
2023/04/19 00:40:22;;;;;;;22.23;20.73;;;11.30;1.00;;;;;;5094326;28;20482;-86
2023/04/19 00:42:54;;;;;;;23.27;21.67;;;11.30;1.00;;;;;;5093595;28;21096;-85
2023/04/19 00:45:32;;;;;;;21.60;20.50;;;11.30;1.00;;;;;;5095497;28;20495;-85
2023/04/19 00:48:01;;;;;;;22.07;20.77;;;11.30;1.00;;;;;;5093970;28;21018;-84
2023/04/19 00:50:29;;;;;;;23.83;22.43;;;11.30;12.50;;;;;;5092870;28;20438;-83
2023/04/19 00:52:58;;;;;;;23.97;22.57;;;11.30;1.00;;;;;;5093884;28;20506;-84
2023/04/19 00:55:30;;;;;;;22.90;21.47;;;11.30;1.00;;;;;;5094377;28;20484;-83
2023/04/19 00:58:08;;;;;;;23.47;22.13;;;11.20;1.00;;;;;;5091234;28;20473;-83
2023/04/19 01:00:37;;;;;;;22.43;21.13;;;11.20;71.00;;;;;;5093751;28;20513;-84
2023/04/19 01:03:12;;;;;;;22.97;21.67;;;11.20;11.80;;;;;;5093693;28;20452;-85
2023/04/19 01:08:32;;;;;;;23.03;21.73;;;11.20;58.20;;;;;;5075860;28;20486;-84
2023/04/19 01:11:02;;;;;;;22.47;21.27;;;11.30;75.10;;;;;;5093143;28;20476;-83
2023/04/19 01:13:31;;;;;;;23.53;22.20;;;11.30;70.70;;;;;;5094011;28;20442;-85
2023/04/19 01:16:00;;;;;;;22.43;21.07;;;11.20;46.70;;;;;;5092867;28;20549;-84
2023/04/19 01:18:34;;;;;;;22.70;21.50;;;11.20;60.90;;;;;;5090217;28;20703;-85
2023/04/19 01:21:02;;;;;;;22.87;21.43;;;11.20;99.90;;;;;;5095548;28;20470;-84
2023/04/19 01:23:32;;;;;;;24.60;23.00;;;11.20;99.90;;;;;;5094128;28;20459;-85
2023/04/19 01:26:01;;;;;;;23.37;21.80;;;11.20;76.20;;;;;;5094135;28;20499;-85
2023/04/19 01:28:29;;;;;;;23.27;22.07;;;11.10;97.30;;;;;;5092695;28;20462;-83
2023/04/19 01:30:57;;;;;;;23.17;21.97;;;11.10;99.90;;;;;;5093730;28;20462;-84
2023/04/19 01:33:26;;;;;;;22.30;21.17;;;11.10;96.40;;;;;;5091414;28;20453;-83
2023/04/19 01:35:54;;;;;;;23.00;21.83;;;11.10;99.90;;;;;;5093655;28;20467;-83
2023/04/19 01:38:22;;;;;;;23.00;21.70;;;11.10;99.90;;;;;;5093740;28;21033;-84
2023/04/19 01:40:52;;;;;;;24.07;22.57;;;11.10;99.90;;;;;;5091929;28;20470;-83
2023/04/19 01:43:20;;;;;;;24.37;22.77;;;11.10;99.90;;;;;;5092334;27;20457;-83
2023/04/19 01:45:48;;;;;;;23.50;22.10;;;11.10;99.90;;;;;;5097095;28;20462;-83
2023/04/19 01:48:17;;;;;;;23.10;21.90;;;11.10;99.90;;;;;;5095986;28;20476;-84
2023/04/19 01:50:45;;;;;;;23.63;22.30;;;11.10;99.90;;;;;;5095641;28;20448;-83
2023/04/19 01:53:13;;;;;;;23.63;22.23;;;11.10;99.90;;;;;;5083776;28;20850;-83
2023/04/19 01:55:42;;;;;;;23.03;21.70;;;11.00;99.90;;;;;;5095838;28;20448;-83
2023/04/19 01:58:11;;;;;;;23.37;21.87;;;11.00;99.90;;;;;;5095992;27;20476;-84
2023/04/19 02:00:40;;;;;;;23.90;22.57;;;11.00;99.90;;;;;;5093089;28;20509;-83
2023/04/19 02:03:08;;;;;;;23.80;22.20;;;11.00;99.90;;;;;;5094917;28;20468;-83
2023/04/19 02:05:38;;;;;;;22.40;21.10;;;11.00;99.90;;;;;;5096169;28;20456;-82
2023/04/19 02:08:09;;;;;;;25.30;23.10;;;11.00;99.90;;;;;;5098133;28;20483;-86
2023/04/19 02:10:37;;;;;;;24.23;22.63;;;11.00;99.90;;;;;;5094600;28;20465;-86
2023/04/19 02:13:06;;;;;;;22.83;21.57;;;11.00;99.90;;;;;;5096235;28;20837;-85
2023/04/19 02:15:37;;;;;;;23.93;22.43;;;11.00;99.90;;;;;;5100553;28;20447;-86
2023/04/19 02:18:06;;;;;;;24.13;22.53;;;11.00;99.90;;;;;;5099248;27;20526;-86
2023/04/19 02:20:35;;;;;;;23.33;22.13;;;11.00;99.90;;;;;;5080011;28;20458;-85
2023/04/19 02:23:03;;;;;;;23.40;22.10;;;11.00;99.90;;;;;;5097439;27;20457;-84
2023/04/19 02:25:31;;;;;;;23.73;22.30;;;10.90;99.90;;;;;;5099862;28;20495;-85
2023/04/19 02:27:59;;;;;;;25.03;23.20;;;11.00;99.90;;;;;;5099640;28;20469;-85
2023/04/19 02:30:28;;;;;;;23.53;22.13;;;11.00;99.90;;;;;;5099057;27;20972;-86
2023/04/19 02:32:57;;;;;;;23.70;22.40;;;10.90;99.90;;;;;;5095113;28;21237;-84
2023/04/19 02:35:26;;;;;;;24.87;23.27;;;11.00;99.90;;;;;;5097017;27;20536;-84
2023/04/19 02:37:54;;;;;;;25.07;23.40;;;11.00;99.90;;;;;;5095461;28;20478;-84
2023/04/19 02:40:22;;;;;;;24.53;22.80;;;11.00;99.90;;;;;;5075382;28;20468;-84
2023/04/19 02:42:50;;;;;;;23.47;22.03;;;11.00;99.90;;;;;;5097891;28;20979;-85
2023/04/19 02:45:19;;;;;;;25.10;23.40;;;10.90;1.00;;;;;;5094611;27;20489;-84
2023/04/19 02:47:47;;;;;;;24.23;22.73;;;10.90;99.90;;;;;;5094185;28;20473;-84
2023/04/19 02:50:17;;;;;;;23.20;21.90;;;10.90;1.00;;;;;;5096188;28;20450;-84
2023/04/19 02:52:45;;;;;;;24.40;22.80;;;10.90;1.00;;;;;;5093618;28;20474;-84
2023/04/19 02:55:14;;;;;;;24.97;23.27;;;10.90;1.00;;;;;;5091159;28;20619;-83
2023/04/19 02:57:42;;;;;;;24.53;22.93;;;10.90;1.00;;;;;;5096814;28;20477;-84
2023/04/19 03:00:11;;;;;;;23.70;22.30;;;10.90;1.00;;;;;;5094982;28;20457;-84
2023/04/19 03:02:39;;;;;;;25.00;23.33;;;10.80;1.00;;;;;;5096520;28;20444;-84
2023/04/19 03:05:08;;;;;;;25.40;23.20;;;10.80;1.00;;;;;;5095200;28;20471;-84
2023/04/19 03:07:38;;;;;;;25.60;23.90;;;10.80;1.00;;;;;;5096088;28;21245;-85
2023/04/19 03:10:07;;;;;;;26.37;24.37;;;10.80;1.00;;;;;;5078363;28;20464;-84
2023/04/19 03:12:36;;;;;;;24.53;23.03;;;10.80;1.00;;;;;;5095189;28;20563;-84
2023/04/19 03:15:05;;;;;;;24.80;23.20;;;10.80;1.00;;;;;;5065166;28;20638;-84
2023/04/19 03:17:33;;;;;;;24.50;22.70;;;10.80;1.00;;;;;;5097729;28;20454;-85
2023/04/19 03:20:01;;;;;;;26.63;24.53;;;10.70;1.00;;;;;;5095300;27;20461;-85
2023/04/19 03:22:30;;;;;;;25.47;23.80;;;10.70;1.00;;;;;;5096698;28;21327;-85
2023/04/19 03:24:59;;;;;;;25.83;24.23;;;10.70;67.70;;;;;;5098420;28;20452;-86
2023/04/19 03:27:27;;;;;;;27.30;24.90;;;10.70;1.00;;;;;;5098426;27;20477;-85
2023/04/19 03:29:56;;;;;;;26.23;24.23;;;10.70;24.70;;;;;;5096317;28;20458;-85
2023/04/19 03:32:24;;;;;;;31.53;28.57;;;10.70;82.10;;;;;;5097319;28;20476;-85
2023/04/19 03:34:52;;;;;;;27.53;25.20;;;10.70;99.10;;;;;;5095415;28;20533;-85
2023/04/19 03:37:20;;;;;;;26.93;24.83;;;10.70;99.90;;;;;;5079401;28;20445;-85
2023/04/19 03:39:48;;;;;;;25.63;23.77;;;10.70;99.90;;;;;;5097139;28;20448;-86
2023/04/19 03:42:18;;;;;;;26.40;24.43;;;10.70;99.90;;;;;;5100790;28;21043;-86
2023/04/19 03:44:46;;;;;;;25.83;24.00;;;10.70;99.90;;;;;;5078533;28;20449;-85
2023/04/19 03:47:14;;;;;;;25.00;23.30;;;10.70;99.90;;;;;;5095744;28;20469;-83
2023/04/19 03:49:42;;;;;;;26.60;24.60;;;10.60;99.90;;;;;;5076929;28;20461;-85
2023/04/19 03:52:10;;;;;;;26.67;24.67;;;10.70;99.90;;;;;;5098204;28;20457;-85
2023/04/19 03:54:39;;;;;;;25.40;23.80;;;10.70;99.90;;;;;;5095381;28;20458;-85
2023/04/19 03:57:07;;;;;;;25.70;23.90;;;10.60;99.90;;;;;;5098535;28;20449;-84
2023/04/19 03:59:37;;;;;;;26.83;24.93;;;10.60;99.90;;;;;;5081466;28;20470;-86
2023/04/19 04:02:06;;;;;;;25.83;24.10;;;10.60;99.90;;;;;;5094138;28;21667;-84
2023/04/19 04:04:34;;;;;;;25.90;23.93;;;10.60;99.90;;;;;;5095295;28;20465;-84
2023/04/19 04:07:03;;;;;;;25.97;23.97;;;10.60;1.00;;;;;;5098011;28;20464;-85
2023/04/19 04:09:31;;;;;;;25.20;23.50;;;10.50;99.90;;;;;;5095209;28;20953;-85
2023/04/19 04:12:00;;;;;;;25.27;23.57;;;10.50;1.00;;;;;;5095139;27;20499;-86
2023/04/19 04:14:28;;;;;;;27.07;25.03;;;10.50;1.00;;;;;;5071241;28;20476;-84
2023/04/19 04:16:58;;;;;;;26.80;24.80;;;10.60;1.00;;;;;;5072292;28;20456;-85
2023/04/19 04:19:26;;;;;;;26.70;24.60;;;10.60;99.90;;;;;;5075504;28;20993;-84
2023/04/19 04:21:55;;;;;;;27.17;25.00;;;10.60;99.90;;;;;;5090999;28;20449;-84
2023/04/19 04:24:23;;;;;;;26.50;24.50;;;10.50;99.90;;;;;;5092212;28;20445;-83
2023/04/19 04:26:51;;;;;;;25.67;23.97;;;10.50;1.00;;;;;;5076475;28;20463;-85
2023/04/19 04:29:20;;;;;;;27.60;25.53;;;10.50;99.90;;;;;;5092690;28;20485;-83
2023/04/19 04:31:52;;;;;;;26.60;24.80;;;10.50;1.00;;;;;;5094889;28;20502;-86
2023/04/19 04:34:24;;;;;;;26.93;25.10;;;10.50;1.00;;;;;;5083535;28;20526;-84
2023/04/19 04:36:53;;;;;;;25.80;24.00;;;10.50;99.90;;;;;;5099668;28;20927;-84
2023/04/19 04:39:22;;;;;;;26.77;24.90;;;10.50;1.00;;;;;;5093734;28;20475;-83
2023/04/19 04:41:50;;;;;;;28.03;26.10;;;10.50;1.00;;;;;;5094448;28;20470;-86
2023/04/19 04:44:21;;;;;;;26.87;25.07;;;10.50;1.00;;;;;;5101890;28;20453;-86
2023/04/19 04:46:49;;;;;;;27.63;25.60;;;10.50;1.00;;;;;;5098514;28;20457;-86
2023/04/19 04:49:17;;;;;;;27.60;25.47;;;10.60;1.00;;;;;;5093554;28;21062;-86
2023/04/19 04:51:47;;;;;;;28.33;26.23;;;10.60;99.90;;;;;;5079886;28;20990;-84
2023/04/19 04:54:15;;;;;;;27.63;25.67;;;10.60;99.90;;;;;;5099191;28;20558;-85
2023/04/19 04:56:44;;;;;;;28.43;26.43;;;10.60;99.90;;;;;;5096236;28;20457;-86
2023/04/19 04:59:12;;;;;;;28.73;26.63;;;10.60;99.90;;;;;;5096503;28;20474;-86
2023/04/19 05:01:41;;;;;;;28.93;26.70;;;10.60;82.00;;;;;;5097470;28;20463;-85
2023/04/19 05:04:09;;;;;;;27.30;25.33;;;10.50;99.90;;;;;;5104180;28;20523;-85
2023/04/19 05:06:39;;;;;;;28.30;26.20;;;10.60;98.10;;;;;;5095756;28;20481;-85
2023/04/19 05:09:09;;;;;;;28.60;26.60;;;10.60;99.90;;;;;;5094645;28;20574;-86
2023/04/19 05:11:37;;;;;;;27.20;25.30;;;10.60;99.90;;;;;;5092802;28;20468;-85
2023/04/19 05:14:05;;;;;;;27.00;25.20;;;10.50;99.90;;;;;;5091627;28;20484;-85
2023/04/19 05:16:33;;;;;;;28.37;26.47;;;10.50;99.90;;;;;;5094910;28;20445;-83
2023/04/19 05:19:02;;;;;;;28.27;26.20;;;10.50;99.90;;;;;;5096591;27;20501;-84
2023/04/19 05:21:30;;;;;;;28.17;25.90;;;10.50;99.90;;;;;;5095380;27;20456;-86
2023/04/19 05:23:58;;;;;;;28.23;26.13;;;10.60;99.90;;;;;;5079487;28;20449;-88
2023/04/19 05:26:28;;;;;;;29.67;27.37;;;10.60;99.90;;;;;;5106832;28;20433;-88
2023/04/19 05:28:56;;;;;;;28.17;26.17;;;10.60;99.90;;;;;;5103872;27;20472;-87
2023/04/19 05:31:24;;;;;;;29.73;27.50;;;10.60;99.90;;;;;;5087831;28;20448;-86
2023/04/19 05:33:52;;;;;;;28.50;26.50;;;10.60;99.90;;;;;;5109673;28;20530;-85
2023/04/19 05:36:20;;;;;;;27.57;25.77;;;10.70;99.90;;;;;;5103544;28;20979;-87
2023/04/19 05:38:49;;;;;;;28.50;26.50;;;10.70;99.90;;;;;;5105781;28;20485;-86
2023/04/19 05:41:17;;;;;;;28.73;26.53;;;10.70;1.00;;;;;;5105206;28;20462;-86
2023/04/19 05:43:47;;;;;;;28.37;26.20;;;10.70;1.00;;;;;;5083406;28;20450;-86
2023/04/19 05:46:16;;;;;;;28.10;25.80;;;10.70;1.00;;;;;;5099234;28;20496;-86
2023/04/19 05:48:45;;;;;;;29.33;27.23;;;10.80;1.00;;;;;;5098493;28;20472;-86
2023/04/19 05:51:16;;;;;;;29.27;27.07;;;10.80;1.00;;;;;;5103328;28;21442;-86
2023/04/19 05:53:44;;;;;;;27.50;25.50;;;10.90;1.00;;;;;;5103138;28;20464;-86
2023/04/19 05:56:13;;;;;;;26.70;24.93;;;10.80;99.90;;;;;;5097433;27;20453;-87
2023/04/19 05:58:41;;;;;;;28.63;26.47;;;10.80;1.00;;;;;;5099147;28;21289;-86
2023/04/19 06:01:11;;;;;;;26.60;24.77;;;10.80;99.90;;;;;;5099801;28;20452;-85
2023/04/19 06:03:39;;;;;;;27.23;25.40;;;10.80;99.90;;;;;;5100037;28;20439;-88
2023/04/19 06:06:09;;;;;;;27.60;25.67;;;10.80;99.90;;;;;;5101355;28;20458;-86
2023/04/19 06:08:37;;;;;;;26.90;24.83;;;10.80;99.90;;;;;;5102688;28;20994;-86
2023/04/19 06:11:06;;;;;;;26.60;24.90;;;10.80;99.90;;;;;;5103268;28;20467;-85
2023/04/19 06:13:50;;;;;;;27.17;24.90;;;10.80;99.90;;;;;;5099897;28;20473;-86
2023/04/19 06:16:20;;;;;;;26.97;24.97;;;10.80;99.90;;;;;;5083799;28;20446;-86
2023/04/19 06:18:49;;;;;;;27.93;25.73;;;10.80;99.90;;;;;;5081431;28;20469;-86
2023/04/19 06:21:17;;;;;;;28.00;26.00;;;10.80;99.90;;;;;;5101772;28;20457;-86
2023/04/19 06:23:46;;;;;;;29.47;27.27;;;10.90;99.90;;;;;;5096473;28;20473;-85
2023/04/19 06:26:14;;;;;;;27.67;25.67;;;10.90;99.90;;;;;;5097878;28;20484;-87
2023/04/19 06:28:42;;;;;;;30.47;28.03;;;11.00;99.90;;;;;;5107245;27;20488;-86
2023/04/19 06:31:11;;;;;;;29.70;27.50;;;10.90;99.90;;;;;;5106885;28;20445;-86
2023/04/19 06:33:40;;;;;;;27.53;25.63;;;10.90;99.90;;;;;;5103991;28;21021;-88
2023/04/19 06:36:09;;;;;;;27.30;25.30;;;11.00;99.90;;;;;;5102419;28;20466;-86
2023/04/19 06:38:37;;;;;;;26.20;24.50;;;11.00;99.90;;;;;;5096070;28;21121;-85
2023/04/19 06:41:06;;;;;;;25.60;23.80;;;11.10;99.90;;;;;;5082634;28;20496;-84
2023/04/19 06:43:34;;;;;;;26.73;24.83;;;11.10;99.90;;;;;;5098246;28;20458;-85
2023/04/19 06:46:05;;;;;;;27.53;25.50;;;11.10;99.90;;;;;;5100367;27;21339;-86
2023/04/19 06:48:34;;;;;;;27.80;25.80;;;11.20;99.90;;;;;;5102057;28;20461;-86
2023/04/19 06:51:04;;;;;;;26.77;24.90;;;11.20;99.90;;;;;;5080788;28;20453;-85
2023/04/19 06:53:33;;;;;;;27.10;25.20;;;11.30;46.10;;;;;;5082207;28;20462;-85
2023/04/19 06:56:03;;;;;;;52.17;45.10;;;11.30;1.00;;;;;;5087338;28;20477;-84
2023/04/19 06:58:31;;;;;;;51.60;42.27;;;11.30;1.00;;;;;;5080808;28;20504;-85
2023/04/19 07:01:04;;;;;;;72.70;53.00;;;11.30;1.00;;;;;;5095014;28;20449;-85
2023/04/19 07:03:32;;;;;;;38.57;34.70;;;11.30;1.00;;;;;;5100545;28;20456;-85
2023/04/19 07:06:01;;;;;;;38.13;34.30;;;11.30;1.00;;;;;;5100698;28;20508;-85
2023/04/19 07:08:31;;;;;;;33.53;30.63;;;11.40;1.00;;;;;;5100080;28;20788;-84
2023/04/19 07:11:16;;;;;;;26.10;24.20;;;11.40;1.00;;;;;;5100037;28;20437;-84
2023/04/19 07:13:47;;;;;;;28.73;26.70;;;11.40;1.00;;;;;;5081672;28;20453;-85
2023/04/19 07:16:15;;;;;;;28.43;26.27;;;11.40;99.90;;;;;;5096654;28;20472;-85
2023/04/19 07:18:44;;;;;;;26.83;24.87;;;11.40;99.90;;;;;;5097028;28;20472;-86
2023/04/19 07:21:12;;;;;;;28.57;26.50;;;11.40;99.90;;;;;;5095116;28;21059;-85
2023/04/19 07:23:42;;;;;;;28.10;26.00;;;11.50;99.90;;;;;;5092250;28;20539;-85
2023/04/19 07:26:11;;;;;;;26.13;24.33;;;11.50;99.90;;;;;;5083339;28;20464;-85
2023/04/19 07:28:39;;;;;;;26.43;24.33;;;11.50;99.90;;;;;;5098480;27;21252;-85
2023/04/19 07:31:08;;;;;;;24.33;22.70;;;11.60;99.90;;;;;;5081513;28;20463;-85
2023/04/19 07:33:36;;;;;;;24.27;22.87;;;11.40;99.90;;;;;;5094232;28;20532;-84
2023/04/19 07:36:05;;;;;;;24.30;22.70;;;11.40;99.90;;;;;;5084213;28;20550;-85
2023/04/19 07:38:33;;;;;;;25.50;23.83;;;11.50;99.90;;;;;;5099299;28;20493;-85
2023/04/19 07:41:04;;;;;;;25.03;23.43;;;11.50;99.90;;;;;;5101547;28;20445;-86
2023/04/19 07:43:32;;;;;;;25.77;23.97;;;11.50;99.90;;;;;;5099705;28;20449;-86
2023/04/19 07:46:00;;;;;;;23.60;21.90;;;11.60;99.90;;;;;;5098854;28;20492;-86
2023/04/19 07:48:29;;;;;;;25.43;23.60;;;11.60;99.90;;;;;;5097294;28;20895;-82
2023/04/19 07:50:57;;;;;;;25.63;23.83;;;11.60;99.90;;;;;;5098066;28;20956;-85
2023/04/19 07:53:26;;;;;;;25.47;23.87;;;11.70;99.90;;;;;;5102512;28;20584;-86
2023/04/19 07:55:54;;;;;;;25.17;23.67;;;11.80;99.90;;;;;;5099644;28;20507;-85
2023/04/19 07:58:24;;;;;;;25.33;23.73;;;11.80;99.90;;;;;;5097546;28;20483;-84
2023/04/19 08:00:52;;;;;;;24.70;23.20;;;11.90;99.90;;;;;;5096398;28;21452;-84
2023/04/19 08:03:20;;;;;;;23.83;22.43;;;11.90;96.60;;;;;;5097187;28;20460;-85
2023/04/19 08:05:49;;;;;;;24.47;22.87;;;11.90;81.30;;;;;;5098274;28;20490;-86
2023/04/19 08:08:18;;;;;;;25.53;24.07;;;12.00;99.90;;;;;;5101115;28;20503;-86
2023/04/19 08:10:46;;;;;;;24.07;22.00;;;12.10;99.90;;;;;;5102687;28;20448;-85
2023/04/19 08:13:14;;;;;;;27.03;24.83;;;12.10;39.70;;;;;;5096802;28;20491;-86
2023/04/19 08:15:44;;;;;;;24.73;23.30;;;12.10;31.30;;;;;;5100651;27;20929;-85
2023/04/19 08:18:15;;;;;;;24.40;23.00;;;12.10;1.00;;;;;;5098248;28;20467;-85
2023/04/19 08:20:45;;;;;;;24.33;22.87;;;12.10;5.00;;;;;;5098903;28;20446;-86
2023/04/19 08:23:13;;;;;;;24.33;22.80;;;12.20;17.60;;;;;;5093547;28;20804;-84
2023/04/19 08:25:51;;;;;;;24.47;22.97;;;12.20;1.00;;;;;;5081725;28;20445;-86
2023/04/19 08:28:19;;;;;;;25.17;23.67;;;12.40;1.00;;;;;;5097827;28;20490;-86
2023/04/19 08:30:49;;;;;;;25.27;23.57;;;12.50;1.00;;;;;;5100904;28;20463;-83
2023/04/19 08:33:18;;;;;;;25.07;23.47;;;12.60;1.00;;;;;;5099192;28;20448;-85
2023/04/19 08:35:46;;;;;;;24.27;22.87;;;12.70;1.00;;;;;;5100372;28;21282;-85
2023/04/19 08:38:14;;;;;;;24.43;22.80;;;12.80;1.00;;;;;;5099696;28;20479;-85
2023/04/19 08:40:51;;;;;;;24.30;22.60;;;13.00;1.00;;;;;;5100522;28;20454;-85
2023/04/19 08:43:20;;;;;;;24.70;23.00;;;13.10;1.00;;;;;;5103075;28;20447;-84
2023/04/19 08:45:50;;;;;;;23.70;22.20;;;13.20;1.00;;;;;;5100568;28;20442;-85
2023/04/19 08:48:19;;;;;;;24.30;22.80;;;13.10;1.00;;;;;;5106440;28;20471;-84
2023/04/19 08:50:48;;;;;;;23.23;21.93;;;13.10;1.00;;;;;;5100608;28;20469;-86
2023/04/19 08:53:33;;;;;;;23.03;21.73;;;13.30;1.00;;;;;;5091635;28;20479;-83
2023/04/19 08:56:03;;;;;;;22.63;21.20;;;13.30;1.00;;;;;;5105415;28;20523;-83
2023/04/19 08:58:34;;;;;;;22.70;21.17;;;13.40;1.00;;;;;;5101998;27;20480;-82
2023/04/19 09:01:24;;;;;;;22.40;21.10;;;13.50;1.00;;;;;;5087752;27;20486;-83
2023/04/19 09:03:55;;;;;;;22.10;20.90;;;13.50;1.00;;;;;;5105760;28;20491;-82
2023/04/19 09:06:43;;;;;;;21.93;20.73;;;13.60;1.00;;;;;;5106836;28;20436;-82
2023/04/19 09:09:16;;;;;;;21.90;20.60;;;13.70;1.00;;;;;;5104051;28;20525;-83
2023/04/19 09:11:48;;;;;;;23.50;22.07;;;13.80;1.00;;;;;;5108170;27;20495;-82
2023/04/19 09:14:18;;;;;;;21.63;20.50;;;13.90;1.00;;;;;;5106101;28;20552;-84
2023/04/19 09:16:50;;;;;;;22.10;20.80;;;13.90;99.90;;;;;;5102988;28;20532;-85
2023/04/19 09:19:19;;;;;;;22.23;20.93;;;14.00;99.90;;;;;;5108249;27;20481;-84
2023/04/19 09:21:52;;;;;;;21.47;20.23;;;14.00;99.90;;;;;;5106785;28;20459;-82
2023/04/19 09:24:37;;;;;;;21.87;20.67;;;14.10;99.90;;;;;;5096767;28;20891;-82
2023/04/19 09:27:28;;;;;;;20.20;19.20;;;14.20;99.90;;;;;;5106950;28;20519;-82
2023/04/19 09:29:57;;;;;;;21.50;20.37;;;14.30;99.90;;;;;;5104741;27;20480;-81
2023/04/19 09:32:27;;;;;;;23.60;22.03;;;14.30;99.90;;;;;;5101013;28;20465;-84
2023/04/19 09:34:58;;;;;;;21.90;20.70;;;14.40;99.90;;;;;;5102695;28;20444;-82
2023/04/19 09:37:27;;;;;;;21.57;20.47;;;14.50;99.90;;;;;;5104739;27;20475;-81
2023/04/19 09:39:58;;;;;;;21.57;20.30;;;14.50;99.90;;;;;;5102823;28;20460;-82
2023/04/19 09:42:45;;;;;;;22.10;20.80;;;14.50;99.90;;;;;;5106994;28;20489;-82
2023/04/19 09:45:17;;;;;;;20.87;19.77;;;14.50;99.90;;;;;;5106614;28;20463;-82
2023/04/19 09:48:01;;;;;;;22.30;21.13;;;14.70;99.90;;;;;;5088125;28;20533;-82
2023/04/19 09:50:29;;;;;;;21.90;20.70;;;14.70;99.90;;;;;;5108328;28;20437;-82
2023/04/19 09:53:00;;;;;;;22.97;21.47;;;14.80;99.90;;;;;;5104928;27;20468;-81
2023/04/19 09:55:28;;;;;;;23.33;21.93;;;14.80;99.90;;;;;;5107327;28;20456;-82
2023/04/19 09:58:05;;;;;;;21.40;20.10;;;14.80;99.90;;;;;;5108347;28;20486;-81
2023/04/19 10:00:35;;;;;;;23.17;21.80;;;14.80;99.90;;;;;;5091729;28;20455;-82
2023/04/19 10:03:18;;;;;;;22.13;20.93;;;14.90;99.90;;;;;;5108461;28;20463;-79
2023/04/19 10:05:47;;;;;;;22.80;21.50;;;15.00;99.90;;;;;;5104176;28;21041;-82
2023/04/19 10:08:17;;;;;;;23.20;21.83;;;15.20;99.90;;;;;;5103492;28;20474;-82
2023/04/19 10:10:53;;;;;;;23.30;22.10;;;15.30;99.90;;;;;;5090069;28;20489;-82
2023/04/19 10:13:22;;;;;;;22.10;20.80;;;15.50;99.90;;;;;;5087332;28;20450;-82
2023/04/19 10:15:54;;;;;;;21.83;20.60;;;15.40;99.90;;;;;;5100222;28;20454;-82
2023/04/19 10:18:37;;;;;;;21.60;20.50;;;15.30;99.90;;;;;;5104268;28;20468;-82
2023/04/19 10:21:08;;;;;;;21.53;20.20;;;15.30;99.90;;;;;;5100302;28;20445;-82
2023/04/19 10:23:37;;;;;;;20.63;19.37;;;15.30;99.90;;;;;;5072434;28;20837;-84
2023/04/19 10:26:06;;;;;;;22.13;20.90;;;15.40;99.90;;;;;;5091570;28;20437;-81
2023/04/19 10:28:36;;;;;;;23.43;22.13;;;15.30;99.90;;;;;;5107163;28;20463;-82
2023/04/19 10:31:05;;;;;;;23.40;21.90;;;15.30;99.90;;;;;;5101297;28;20549;-85
2023/04/19 10:33:37;;;;;;;31.33;28.13;;;15.20;99.90;;;;;;5104075;28;20458;-83
2023/04/19 10:36:10;;;;;;;24.63;22.87;;;15.10;99.90;;;;;;5103328;28;20537;-82
2023/04/19 10:38:42;;;;;;;22.07;20.87;;;15.00;99.90;;;;;;5085152;28;20497;-82
2023/04/19 10:41:13;;;;;;;24.03;22.27;;;14.90;99.90;;;;;;5101456;28;20489;-81
2023/04/19 10:43:46;;;;;;;22.00;20.60;;;14.90;99.90;;;;;;5102736;27;20445;-84
2023/04/19 10:46:17;;;;;;;23.00;21.70;;;14.80;99.90;;;;;;5098250;28;20973;-81
2023/04/19 10:48:54;;;;;;;23.00;21.60;;;14.80;99.90;;;;;;5100584;28;20468;-85
2023/04/19 10:51:23;;;;;;;23.03;21.73;;;14.70;99.90;;;;;;5094022;28;20958;-82
2023/04/19 10:53:54;;;;;;;23.07;21.77;;;14.60;99.90;;;;;;5100301;28;20558;-82
2023/04/19 10:57:00;;;;;;;21.73;20.53;;;14.70;99.90;;;;;;5102482;28;20503;-82
2023/04/19 10:59:33;;;;;;;21.77;20.57;;;14.70;99.90;;;;;;5100040;28;20490;-83
2023/04/19 11:02:02;;;;;;;22.00;20.70;;;14.70;99.90;;;;;;5102901;28;20844;-82
2023/04/19 11:05:03;;;;;;;21.03;20.00;;;14.70;99.90;;;;;;5099191;28;20469;-80
2023/04/19 11:07:42;;;;;;;22.30;20.97;;;14.70;99.90;;;;;;5091402;28;20437;-80
2023/04/19 11:10:11;;;;;;;23.50;22.10;;;14.80;99.90;;;;;;5098759;28;20445;-84
2023/04/19 11:12:44;;;;;;;22.37;20.87;;;14.80;99.90;;;;;;5089222;28;20200;-82
2023/04/19 11:15:12;;;;;;;22.63;21.23;;;14.80;99.90;;;;;;5097897;28;20465;-85
2023/04/19 11:17:41;;;;;;;21.63;20.43;;;14.80;99.90;;;;;;5102547;28;20479;-83
2023/04/19 11:20:13;;;;;;;21.87;20.50;;;14.80;99.90;;;;;;5101228;28;20583;-81
2023/04/19 11:22:42;;;;;;;21.23;20.13;;;14.70;99.90;;;;;;5102331;28;20446;-82
2023/04/19 11:25:12;;;;;;;22.20;20.90;;;14.70;99.90;;;;;;5100918;28;20453;-83
2023/04/19 11:27:41;;;;;;;24.00;22.20;;;14.50;99.90;;;;;;5101179;28;20472;-83
2023/04/19 11:30:12;;;;;;;20.43;19.17;;;14.40;99.90;;;;;;5079837;28;20487;-86
2023/04/19 11:32:46;;;;;;;20.90;19.80;;;14.40;99.90;;;;;;5087452;28;20459;-81
2023/04/19 11:35:18;;;;;;;21.30;20.20;;;14.30;99.90;;;;;;5102016;28;20464;-82
2023/04/19 11:37:46;;;;;;;21.67;20.07;;;14.30;99.90;;;;;;5109127;28;20544;-85
2023/04/19 11:40:16;;;;;;;22.90;21.50;;;14.20;99.90;;;;;;5104417;28;20472;-81
2023/04/19 11:42:44;;;;;;;21.17;19.97;;;14.20;99.90;;;;;;5102448;28;20442;-81
2023/04/19 11:45:24;;;;;;;22.40;21.10;;;14.10;99.90;;;;;;5104686;28;20453;-82
2023/04/19 11:47:59;;;;;;;22.67;21.37;;;14.10;99.90;;;;;;5100328;27;20468;-83
2023/04/19 11:50:36;;;;;;;21.83;20.63;;;14.00;99.90;;;;;;5098929;28;21403;-83
2023/04/19 11:53:15;;;;;;;24.80;23.40;;;13.90;99.90;;;;;;5106697;28;20555;-82
2023/04/19 11:55:45;;;;;;;22.80;21.23;;;13.90;99.90;;;;;;5104080;28;20583;-83
2023/04/19 11:58:28;;;;;;;23.00;21.60;;;13.90;99.90;;;;;;5101018;28;20608;-82
2023/04/19 12:00:59;;;;;;;24.40;22.80;;;13.90;99.90;;;;;;5098387;28;20951;-82
2023/04/19 12:03:27;;;;;;;23.87;22.57;;;13.90;99.90;;;;;;5085088;28;20460;-81
2023/04/19 12:06:02;;;;;;;23.60;22.20;;;13.80;99.90;;;;;;5090003;28;21168;-82
2023/04/19 12:08:32;;;;;;;23.67;22.27;;;13.80;99.90;;;;;;5100399;27;20479;-83
2023/04/19 12:11:02;;;;;;;23.70;22.13;;;13.80;99.90;;;;;;5101152;28;20886;-82
2023/04/19 12:13:31;;;;;;;22.13;20.83;;;13.60;99.90;;;;;;5100127;28;21034;-82
2023/04/19 12:16:00;;;;;;;25.23;23.53;;;13.50;99.90;;;;;;5098785;28;20456;-82
2023/04/19 12:18:42;;;;;;;24.60;22.97;;;13.50;99.90;;;;;;5100847;28;20518;-81
2023/04/19 12:21:13;;;;;;;24.93;23.23;;;13.40;99.90;;;;;;5100456;28;20488;-83
2023/04/19 12:23:41;;;;;;;24.33;22.63;;;13.40;99.90;;;;;;5092518;28;20453;-85
2023/04/19 12:26:10;;;;;;;24.50;23.00;;;13.40;99.90;;;;;;5096838;28;20462;-82
2023/04/19 12:28:38;;;;;;;24.23;22.80;;;13.40;99.90;;;;;;5098005;28;20476;-85
2023/04/19 12:31:06;;;;;;;24.90;23.17;;;13.30;99.90;;;;;;5099542;28;20455;-83
2023/04/19 12:33:34;;;;;;;23.70;22.20;;;13.20;99.90;;;;;;5100910;28;20453;-83
2023/04/19 12:36:03;;;;;;;25.27;23.67;;;13.20;99.90;;;;;;5097687;28;20441;-83
2023/04/19 12:38:32;;;;;;;27.17;25.47;;;13.20;99.90;;;;;;5102856;28;20486;-84
2023/04/19 12:41:01;;;;;;;24.03;22.57;;;13.20;99.90;;;;;;5097317;28;20950;-82
2023/04/19 12:43:30;;;;;;;23.97;22.47;;;13.10;1.00;;;;;;5100545;28;20459;-84
2023/04/19 12:45:59;;;;;;;23.37;22.07;;;13.10;1.00;;;;;;5100729;28;20467;-82
2023/04/19 12:48:27;;;;;;;23.97;22.50;;;13.00;1.00;;;;;;5077979;28;20535;-82